Time;durP1;ratioP1;P1;durP2;ratioP2;P2;SDS_P1;SDS_P2;PMS_P1;PMS_P2;Temp;Humidity;BMP_temperature;BMP_pressure;BME280_temperature;BME280_humidity;BME280_pressure;Samples;Min_cycle;Max_cycle;Signal;HPM_P1;HPM_P2
2023/08/16 00:00:37;;;;;;;;;;;;;;;31.01;44.86;101792.25;5062908;28;20304;-83
2023/08/16 00:03:04;;;;;;;;;;;;;;;31.01;44.97;101792.25;5065135;28;20361;-83
2023/08/16 00:05:29;;;;;;;;;;;;;;;31.00;44.91;101790.66;5061559;28;19943;-84
2023/08/16 00:07:54;;;;;;;;;;;;;;;30.97;44.50;101790.22;5064987;28;20296;-84
2023/08/16 00:10:20;;;;;;;;;;;;;;;30.94;44.92;101784.59;5061027;28;19921;-84
2023/08/16 00:12:45;;;;;;;;;;;;;;;30.90;45.08;101795.59;5064378;28;19917;-83
2023/08/16 00:15:10;;;;;;;;;;;;;;;30.86;45.56;101796.66;5059227;28;19942;-84
2023/08/16 00:17:36;;;;;;;;;;;;;;;30.80;44.86;101795.34;5063937;28;20466;-84
2023/08/16 00:20:03;;;;;;;;;;;;;;;30.77;45.31;101799.66;5058093;28;19978;-84
2023/08/16 00:22:29;;;;;;;;;;;;;;;30.78;45.15;101804.00;5060885;28;19920;-84
2023/08/16 00:24:54;;;;;;;;;;;;;;;30.76;45.16;101798.03;5059402;28;19936;-83
2023/08/16 00:27:19;;;;;;;;;;;;;;;30.74;45.33;101805.91;5057911;28;20375;-84
2023/08/16 00:29:46;;;;;;;;;;;;;;;30.70;45.17;101793.13;5056640;28;19916;-84
2023/08/16 00:32:12;;;;;;;;;;;;;;;30.67;45.49;101795.44;5055222;28;20432;-84
2023/08/16 00:34:37;;;;;;;;;;;;;;;30.70;45.57;101793.13;5039461;28;19981;-84
2023/08/16 00:37:02;;;;;;;;;;;;;;;30.71;45.44;101787.25;5056600;28;20426;-83
2023/08/16 00:39:27;;;;;;;;;;;;;;;30.70;45.14;101793.94;5057538;28;20419;-84
2023/08/16 00:41:53;;;;;;;;;;;;;;;30.67;45.00;101800.19;5063823;28;20061;-84
2023/08/16 00:44:18;;;;;;;;;;;;;;;30.59;45.66;101801.97;5064233;28;20493;-84
2023/08/16 00:46:43;;;;;;;;;;;;;;;30.54;45.67;101809.75;5056086;28;19919;-84
2023/08/16 00:49:09;;;;;;;;;;;;;;;30.42;46.18;101816.16;5060014;28;19973;-84
2023/08/16 00:51:34;;;;;;;;;;;;;;;30.42;45.61;101804.31;5057687;28;19956;-83
2023/08/16 00:54:00;;;;;;;;;;;;;;;30.36;45.90;101798.25;5061339;28;20257;-84
2023/08/16 00:56:25;;;;;;;;;;;;;;;30.37;45.72;101808.16;5062170;28;20011;-84
2023/08/16 00:58:50;;;;;;;;;;;;;;;30.36;45.88;101812.88;5060048;28;19916;-84
2023/08/16 01:01:16;;;;;;;;;;;;;;;30.27;46.01;101814.19;5061659;28;20388;-84
2023/08/16 01:03:42;;;;;;;;;;;;;;;30.22;46.50;101808.94;5059903;28;20441;-84
2023/08/16 01:06:07;;;;;;;;;;;;;;;30.13;45.95;101794.47;5061043;28;19917;-84
2023/08/16 01:08:32;;;;;;;;;;;;;;;30.12;46.18;101798.41;5059124;28;19921;-84
2023/08/16 01:11:00;;;;;;;;;;;;;;;30.16;46.19;101805.63;5064681;28;19925;-84
2023/08/16 01:13:34;;;;;;;;;;;;;;;30.18;45.99;101803.34;5061735;28;19931;-84
2023/08/16 01:16:07;;;;;;;;;;;;;;;30.19;46.01;101812.44;5061713;28;19949;-83
2023/08/16 01:18:34;;;;;;;;;;;;;;;30.11;45.71;101811.41;5057137;28;19929;-84
2023/08/16 01:21:00;;;;;;;;;;;;;;;30.02;46.47;101813.53;5059108;28;19947;-84
2023/08/16 01:23:29;;;;;;;;;;;;;;;30.03;46.29;101815.16;5057647;28;20120;-84
2023/08/16 01:26:06;;;;;;;;;;;;;;;30.03;46.27;101810.41;5059459;28;19921;-84
2023/08/16 01:28:32;;;;;;;;;;;;;;;30.02;46.33;101796.97;5056436;28;19916;-84
2023/08/16 01:31:01;;;;;;;;;;;;;;;30.05;46.27;101807.31;5058053;28;19967;-84
2023/08/16 01:33:26;;;;;;;;;;;;;;;30.02;46.05;101808.00;5059218;28;20042;-84
2023/08/16 01:35:52;;;;;;;;;;;;;;;29.97;45.85;101806.28;5071026;28;20403;-84
2023/08/16 01:38:17;;;;;;;;;;;;;;;29.91;46.37;101804.16;5060895;28;20403;-84
2023/08/16 01:41:06;;;;;;;;;;;;;;;29.84;46.34;101806.75;5056004;28;19966;-84
2023/08/16 01:43:31;;;;;;;;;;;;;;;29.81;46.30;101796.41;5056907;28;20003;-84
2023/08/16 01:45:58;;;;;;;;;;;;;;;29.81;46.54;101808.25;5059366;28;20351;-84
2023/08/16 01:48:23;;;;;;;;;;;;;;;29.81;46.48;101807.44;5059952;28;20003;-84
2023/08/16 01:50:49;;;;;;;;;;;;;;;29.77;46.70;101818.38;5054024;28;20008;-84
2023/08/16 01:53:14;;;;;;;;;;;;;;;29.75;46.44;101831.75;5061322;28;20037;-84
2023/08/16 01:55:39;;;;;;;;;;;;;;;29.72;46.41;101837.97;5054916;28;19920;-84
2023/08/16 01:58:05;;;;;;;;;;;;;;;29.70;46.08;101843.84;5056638;28;19982;-84
2023/08/16 02:00:30;;;;;;;;;;;;;;;29.69;46.20;101847.78;5062243;28;19963;-84
2023/08/16 02:02:56;;;;;;;;;;;;;;;29.63;46.44;101840.91;5056227;28;19924;-84
2023/08/16 02:05:21;;;;;;;;;;;;;;;29.54;46.60;101843.00;5055852;28;19974;-84
2023/08/16 02:07:46;;;;;;;;;;;;;;;29.40;46.69;101846.09;5059676;28;20028;-84
2023/08/16 02:10:12;;;;;;;;;;;;;;;29.36;46.78;101845.22;5059720;28;20521;-84
2023/08/16 02:12:37;;;;;;;;;;;;;;;29.34;46.80;101836.47;5058353;28;19932;-84
2023/08/16 02:15:03;;;;;;;;;;;;;;;29.30;46.83;101854.91;5057720;28;19955;-84
2023/08/16 02:17:28;;;;;;;;;;;;;;;29.30;46.77;101856.84;5059349;28;19927;-84
2023/08/16 02:19:53;;;;;;;;;;;;;;;29.32;46.40;101851.78;5059834;28;20403;-83
2023/08/16 02:22:18;;;;;;;;;;;;;;;29.33;46.65;101840.38;5059080;28;20380;-84
2023/08/16 02:24:44;;;;;;;;;;;;;;;29.37;46.29;101840.50;5059146;28;19925;-84
2023/08/16 02:27:09;;;;;;;;;;;;;;;29.40;46.32;101843.34;5060905;28;20145;-84
2023/08/16 02:29:34;;;;;;;;;;;;;;;29.42;46.48;101843.78;5061047;28;19916;-84
2023/08/16 02:32:00;;;;;;;;;;;;;;;29.41;46.16;101838.63;5060420;28;19943;-84
2023/08/16 02:34:25;;;;;;;;;;;;;;;29.41;46.19;101833.91;5056339;28;19920;-83
2023/08/16 02:36:50;;;;;;;;;;;;;;;29.40;46.42;101828.75;5062732;28;20019;-84
2023/08/16 02:39:17;;;;;;;;;;;;;;;29.38;46.37;101820.81;5059179;28;19921;-84
2023/08/16 02:41:42;;;;;;;;;;;;;;;29.38;46.24;101826.34;5059776;28;19924;-84
2023/08/16 02:44:07;;;;;;;;;;;;;;;29.39;46.44;101829.91;5061894;28;20426;-84
2023/08/16 02:46:33;;;;;;;;;;;;;;;29.35;46.25;101834.50;5058526;28;19925;-84
2023/08/16 02:48:58;;;;;;;;;;;;;;;29.33;46.58;101843.16;5061321;28;19916;-84
2023/08/16 02:51:23;;;;;;;;;;;;;;;29.33;46.56;101839.59;5060466;28;19920;-84
2023/08/16 02:53:49;;;;;;;;;;;;;;;29.33;46.66;101836.81;5059694;28;20403;-84
2023/08/16 02:56:14;;;;;;;;;;;;;;;29.31;46.61;101839.13;5059445;28;19920;-84
2023/08/16 02:58:39;;;;;;;;;;;;;;;29.27;46.65;101849.28;5056833;28;19920;-84
2023/08/16 03:01:04;;;;;;;;;;;;;;;29.26;46.50;101853.16;5059635;28;19959;-84
2023/08/16 03:03:31;;;;;;;;;;;;;;;29.19;47.01;101848.25;5060455;28;19920;-84
2023/08/16 03:05:56;;;;;;;;;;;;;;;29.10;46.92;101855.84;5058472;28;20015;-84
2023/08/16 03:08:21;;;;;;;;;;;;;;;29.02;47.11;101862.28;5059354;28;20214;-84
2023/08/16 03:10:46;;;;;;;;;;;;;;;29.00;47.19;101856.31;5059541;28;20321;-84
2023/08/16 03:13:12;;;;;;;;;;;;;;;29.02;47.36;101857.56;5060798;28;20022;-84
2023/08/16 03:15:37;;;;;;;;;;;;;;;29.07;47.36;101862.84;5056041;28;20015;-84
2023/08/16 03:18:03;;;;;;;;;;;;;;;29.09;46.88;101866.09;5064821;28;20003;-84
2023/08/16 03:20:29;;;;;;;;;;;;;;;29.12;47.14;101870.09;5063041;28;20376;-84
2023/08/16 03:22:54;;;;;;;;;;;;;;;29.14;47.09;101863.09;5064408;28;20038;-84
2023/08/16 03:25:20;;;;;;;;;;;;;;;29.15;47.10;101872.97;5065354;28;20002;-84
2023/08/16 03:27:45;;;;;;;;;;;;;;;29.16;46.90;101874.56;5064901;28;20530;-84
2023/08/16 03:30:11;;;;;;;;;;;;;;;29.19;46.88;101868.34;5064802;28;19917;-84
2023/08/16 03:32:36;;;;;;;;;;;;;;;29.21;46.86;101864.44;5062846;28;19966;-84
2023/08/16 03:35:01;;;;;;;;;;;;;;;29.23;46.90;101871.22;5064467;28;20415;-83
2023/08/16 03:37:27;;;;;;;;;;;;;;;29.23;46.90;101871.22;5065846;28;20070;-84
2023/08/16 03:39:52;;;;;;;;;;;;;;;29.25;46.92;101859.81;5061989;28;19916;-84
2023/08/16 03:42:17;;;;;;;;;;;;;;;29.23;46.84;101860.19;5061932;28;19948;-84
2023/08/16 03:44:43;;;;;;;;;;;;;;;29.23;46.91;101859.38;5063069;28;19920;-83
2023/08/16 03:47:09;;;;;;;;;;;;;;;29.23;46.81;101870.41;5061732;28;19923;-84
2023/08/16 03:49:34;;;;;;;;;;;;;;;29.21;46.62;101879.03;5061543;28;19917;-83
2023/08/16 03:52:00;;;;;;;;;;;;;;;29.21;46.66;101886.53;5062802;28;19971;-84
2023/08/16 03:54:25;;;;;;;;;;;;;;;29.13;46.70;101882.75;5061902;28;20171;-84
2023/08/16 03:56:50;;;;;;;;;;;;;;;29.09;46.92;101877.13;5062838;28;20296;-84
2023/08/16 03:59:16;;;;;;;;;;;;;;;29.09;47.09;101876.31;5061883;28;20440;-84
2023/08/16 04:01:41;;;;;;;;;;;;;;;29.08;46.88;101872.72;5063203;28;20331;-84
2023/08/16 04:04:06;;;;;;;;;;;;;;;29.08;47.05;101881.00;5064876;28;19925;-84
2023/08/16 04:06:32;;;;;;;;;;;;;;;29.08;46.69;101885.72;5061745;28;19924;-84
2023/08/16 04:08:57;;;;;;;;;;;;;;;29.07;47.02;101882.16;5062824;28;19932;-84
2023/08/16 04:11:22;;;;;;;;;;;;;;;29.08;47.07;101886.53;5061993;28;19924;-84
2023/08/16 04:13:47;;;;;;;;;;;;;;;29.08;46.83;101881.00;5063507;28;20326;-84
2023/08/16 04:16:13;;;;;;;;;;;;;;;29.07;47.01;101892.41;5063368;28;19917;-84
2023/08/16 04:18:38;;;;;;;;;;;;;;;29.01;46.90;101908.38;5061214;28;20059;-83
2023/08/16 04:21:03;;;;;;;;;;;;;;;28.96;47.28;101905.06;5062330;28;19920;-84
2023/08/16 04:23:29;;;;;;;;;;;;;;;28.94;47.27;101913.69;5062187;28;19920;-84
2023/08/16 04:25:54;;;;;;;;;;;;;;;28.98;47.24;101909.09;5057959;28;19950;-84
2023/08/16 04:28:19;;;;;;;;;;;;;;;28.99;47.33;101920.94;5063382;28;19928;-84
2023/08/16 04:30:45;;;;;;;;;;;;;;;28.99;47.24;101921.72;5063758;28;19928;-84
2023/08/16 04:33:10;;;;;;;;;;;;;;;28.96;47.17;101905.88;5062550;28;20446;-84
2023/08/16 04:35:35;;;;;;;;;;;;;;;28.97;47.29;101906.69;5062308;28;20402;-84
2023/08/16 04:38:00;;;;;;;;;;;;;;;29.01;46.75;101902.06;5064152;28;20533;-83
2023/08/16 04:40:26;;;;;;;;;;;;;;;29.02;47.10;101903.69;5060832;28;20403;-83
2023/08/16 04:42:51;;;;;;;;;;;;;;;29.02;47.08;101910.00;5061844;28;19924;-83
2023/08/16 04:45:16;;;;;;;;;;;;;;;29.00;47.31;101917.81;5060709;28;19916;-84
2023/08/16 04:47:42;;;;;;;;;;;;;;;28.98;47.26;101925.63;5059594;28;20277;-83
2023/08/16 04:50:07;;;;;;;;;;;;;;;28.98;47.09;101927.59;5061387;28;19916;-84
2023/08/16 04:52:33;;;;;;;;;;;;;;;28.98;47.31;101931.16;5056823;28;19960;-84
2023/08/16 04:54:59;;;;;;;;;;;;;;;28.97;47.05;101935.06;5062023;28;19920;-83
2023/08/16 04:57:24;;;;;;;;;;;;;;;28.96;47.21;101933.47;5061130;28;19912;-83
2023/08/16 04:59:50;;;;;;;;;;;;;;;28.94;47.10;101946.00;5058814;28;19962;-83
2023/08/16 05:02:15;;;;;;;;;;;;;;;28.94;47.24;101941.28;5060474;28;20333;-84
2023/08/16 05:04:40;;;;;;;;;;;;;;;28.98;47.00;101944.16;5058824;28;19928;-83
2023/08/16 05:07:06;;;;;;;;;;;;;;;29.01;46.93;101941.50;5061089;28;19916;-84
2023/08/16 05:09:31;;;;;;;;;;;;;;;29.03;47.17;101943.91;5062097;28;20280;-83
2023/08/16 05:11:56;;;;;;;;;;;;;;;29.00;47.17;101947.38;5063074;28;20376;-83
2023/08/16 05:14:22;;;;;;;;;;;;;;;29.01;47.19;101946.22;5061669;28;19924;-84
2023/08/16 05:16:47;;;;;;;;;;;;;;;29.01;47.07;101947.03;5057407;28;19920;-84
2023/08/16 05:19:13;;;;;;;;;;;;;;;29.03;47.09;101944.72;5063181;28;20404;-83
2023/08/16 05:21:38;;;;;;;;;;;;;;;29.04;47.21;101945.53;5060547;28;19942;-84
2023/08/16 05:24:03;;;;;;;;;;;;;;;29.09;46.96;101957.16;5065471;28;19924;-83
2023/08/16 05:26:29;;;;;;;;;;;;;;;29.12;47.27;101959.22;5059622;28;20338;-83
2023/08/16 05:28:54;;;;;;;;;;;;;;;29.18;47.08;101970.81;5059469;28;20306;-84
2023/08/16 05:31:19;;;;;;;;;;;;;;;29.21;47.08;101959.09;5062704;28;20024;-83
2023/08/16 05:33:45;;;;;;;;;;;;;;;29.27;47.14;101959.69;5064396;28;19920;-83
2023/08/16 05:36:10;;;;;;;;;;;;;;;29.30;47.13;101967.25;5061243;28;19920;-83
2023/08/16 05:38:35;;;;;;;;;;;;;;;29.31;46.96;101968.88;5058942;28;19977;-83
2023/08/16 05:41:03;;;;;;;;;;;;;;;29.35;46.86;101961.50;5063018;28;19947;-83
2023/08/16 05:43:29;;;;;;;;;;;;;;;29.41;46.74;101963.66;5061455;28;19924;-83
2023/08/16 05:45:54;;;;;;;;;;;;;;;29.48;46.76;101969.47;5063410;28;19971;-83
2023/08/16 05:48:19;;;;;;;;;;;;;;;29.56;46.79;101964.94;5059973;28;19967;-83
2023/08/16 05:50:45;;;;;;;;;;;;;;;29.63;46.51;101979.00;5061190;28;19967;-83
2023/08/16 05:53:10;;;;;;;;;;;;;;;29.71;46.07;101975.28;5060798;28;19923;-83
2023/08/16 05:55:35;;;;;;;;;;;;;;;29.75;45.92;101986.44;5062359;28;19916;-83
2023/08/16 05:58:01;;;;;;;;;;;;;;;29.76;45.78;101991.59;5061153;28;20841;-83
2023/08/16 06:00:27;;;;;;;;;;;;;;;29.79;45.81;101984.56;5060318;28;19924;-82
2023/08/16 06:02:53;;;;;;;;;;;;;;;29.81;45.41;101989.78;5058706;28;19947;-83
2023/08/16 06:05:19;;;;;;;;;;;;;;;29.80;45.65;101988.94;5062501;28;20403;-83
2023/08/16 06:07:44;;;;;;;;;;;;;;;29.77;45.39;101995.16;5060930;28;20009;-83
2023/08/16 06:10:09;;;;;;;;;;;;;;;29.73;45.45;102000.59;5061416;28;19923;-83
2023/08/16 06:12:35;;;;;;;;;;;;;;;29.75;45.53;102000.25;5061354;28;19917;-83
2023/08/16 06:15:00;;;;;;;;;;;;;;;29.81;45.67;102000.81;5061688;28;20655;-83
2023/08/16 06:17:25;;;;;;;;;;;;;;;29.92;44.97;102001.94;5059831;28;19947;-83
2023/08/16 06:19:51;;;;;;;;;;;;;;;30.02;45.02;102001.44;5059490;28;19923;-83
2023/08/16 06:22:16;;;;;;;;;;;;;;;30.11;44.91;102004.09;5060457;28;19916;-83
2023/08/16 06:24:41;;;;;;;;;;;;;;;30.23;44.75;102015.91;5061232;28;19920;-83
2023/08/16 06:27:08;;;;;;;;;;;;;;;30.25;43.62;102021.09;5056542;28;19923;-82
2023/08/16 06:29:34;;;;;;;;;;;;;;;30.23;44.51;102017.88;5056565;28;19928;-83
2023/08/16 06:32:00;;;;;;;;;;;;;;;30.14;43.86;102012.47;5060538;28;19923;-83
2023/08/16 06:34:26;;;;;;;;;;;;;;;30.15;44.46;102004.97;5062108;28;19920;-83
2023/08/16 06:36:52;;;;;;;;;;;;;;;30.16;44.32;102018.44;5060891;28;20403;-83
2023/08/16 06:39:17;;;;;;;;;;;;;;;30.27;44.35;102019.56;5063307;28;20540;-85
2023/08/16 06:41:42;;;;;;;;;;;;;;;30.42;44.08;102012.47;5058003;28;19932;-83
2023/08/16 06:44:08;;;;;;;;;;;;;;;30.53;43.78;102015.56;5059012;28;20003;-82
2023/08/16 06:46:34;;;;;;;;;;;;;;;30.62;43.79;102013.44;5063293;28;19995;-82
2023/08/16 06:49:00;;;;;;;;;;;;;;;30.74;44.05;102009.81;5063132;28;20316;-84
2023/08/16 06:51:26;;;;;;;;;;;;;;;30.90;43.76;102008.66;5065962;28;20404;-83
2023/08/16 06:53:51;;;;;;;;;;;;;;;31.02;43.62;102009.72;5062600;28;20026;-83
2023/08/16 06:56:16;;;;;;;;;;;;;;;31.11;43.42;102002.88;5063884;28;20041;-82
2023/08/16 06:58:42;;;;;;;;;;;;;;;31.24;43.28;102001.63;5064912;28;20014;-83
2023/08/16 07:01:08;;;;;;;;;;;;;;;31.43;42.59;101997.31;5065487;28;19942;-82
2023/08/16 07:03:33;;;;;;;;;;;;;;;31.61;42.47;101997.72;5066345;28;19928;-83
2023/08/16 07:05:58;;;;;;;;;;;;;;;31.77;42.38;102002.06;5067182;28;19927;-84
2023/08/16 07:08:24;;;;;;;;;;;;;;;31.84;41.75;102006.97;5064449;28;20412;-84
2023/08/16 07:10:49;;;;;;;;;;;;;;;31.85;41.26;102003.03;5065334;28;19917;-86
2023/08/16 07:13:14;;;;;;;;;;;;;;;31.90;42.17;102005.50;5062384;28;19920;-84
2023/08/16 07:15:40;;;;;;;;;;;;;;;32.02;42.27;102005.38;5060447;28;19931;-82
2023/08/16 07:18:05;;;;;;;;;;;;;;;32.12;41.82;102001.22;5063814;28;20050;-83
2023/08/16 07:20:31;;;;;;;;;;;;;;;32.17;41.35;102001.75;5063640;28;20446;-82
2023/08/16 07:22:58;;;;;;;;;;;;;;;32.24;41.39;101998.28;5063930;28;19917;-84
2023/08/16 07:25:25;;;;;;;;;;;;;;;32.32;41.01;102008.41;5063216;28;19929;-84
2023/08/16 07:27:51;;;;;;;;;;;;;;;32.40;40.91;102012.91;5064264;28;19920;-84
2023/08/16 07:30:16;;;;;;;;;;;;;;;32.50;41.10;102013.47;5061041;28;19920;-85
2023/08/16 07:32:41;;;;;;;;;;;;;;;32.59;41.03;102012.06;5057358;28;20048;-85
2023/08/16 07:35:08;;;;;;;;;;;;;;;32.73;40.17;102014.31;5058961;28;19916;-84
2023/08/16 07:37:34;;;;;;;;;;;;;;;32.84;40.70;102008.97;5056872;28;20020;-84
2023/08/16 07:39:59;;;;;;;;;;;;;;;32.93;40.18;102006.75;5063499;28;20007;-84
2023/08/16 07:42:24;;;;;;;;;;;;;;;32.98;39.35;102014.75;5062617;28;19916;-83
2023/08/16 07:44:50;;;;;;;;;;;;;;;33.00;39.96;102007.66;5060241;28;20334;-83
2023/08/16 07:47:15;;;;;;;;;;;;;;;33.09;40.03;102026.88;5063083;28;19916;-86
2023/08/16 07:49:41;;;;;;;;;;;;;;;33.21;39.58;102034.97;5064642;28;19959;-86
2023/08/16 07:52:06;;;;;;;;;;;;;;;33.31;39.67;102028.81;5063316;28;19979;-85
2023/08/16 07:54:32;;;;;;;;;;;;;;;33.44;39.42;102031.41;5060115;28;20222;-85
2023/08/16 07:56:57;;;;;;;;;;;;;;;33.54;39.07;102041.88;5064296;28;20388;-85
2023/08/16 07:59:23;;;;;;;;;;;;;;;33.60;38.71;102043.97;5061041;28;19946;-85
2023/08/16 08:01:49;;;;;;;;;;;;;;;33.64;38.86;102049.56;5062403;28;19994;-85
2023/08/16 08:04:14;;;;;;;;;;;;;;;33.70;38.53;102050.84;5064324;28;20284;-86
2023/08/16 08:06:39;;;;;;;;;;;;;;;33.76;38.48;102054.91;5059753;28;19924;-86
2023/08/16 08:09:05;;;;;;;;;;;;;;;33.80;37.31;102055.75;5060614;28;19916;-85
2023/08/16 08:11:30;;;;;;;;;;;;;;;33.85;38.28;102054.66;5058139;28;19964;-83
2023/08/16 08:13:57;;;;;;;;;;;;;;;33.93;37.32;102065.50;5062226;28;19927;-86
2023/08/16 08:16:22;;;;;;;;;;;;;;;33.98;37.76;102055.22;5063834;28;19999;-85
2023/08/16 08:18:47;;;;;;;;;;;;;;;34.09;37.88;102065.31;5064768;28;20661;-85
2023/08/16 08:21:13;;;;;;;;;;;;;;;34.17;37.71;102072.56;5063593;28;19928;-85
2023/08/16 08:23:39;;;;;;;;;;;;;;;34.29;37.74;102065.13;5060940;28;19973;-85
2023/08/16 08:26:06;;;;;;;;;;;;;;;34.42;37.36;102072.91;5060869;28;19916;-82
2023/08/16 08:28:31;;;;;;;;;;;;;;;34.46;35.61;102076.50;5064915;28;19958;-84
2023/08/16 08:30:57;;;;;;;;;;;;;;;34.44;36.93;102076.09;5064468;28;19924;-83
2023/08/16 08:33:22;;;;;;;;;;;;;;;34.34;36.86;102076.75;5064720;28;19921;-84
2023/08/16 08:35:48;;;;;;;;;;;;;;;34.34;37.33;102090.66;5059727;28;20431;-86
2023/08/16 08:38:14;;;;;;;;;;;;;;;34.47;37.28;102094.84;5060054;28;19917;-85
2023/08/16 08:40:39;;;;;;;;;;;;;;;34.42;36.96;102092.38;5062788;28;20434;-85
2023/08/16 08:43:05;;;;;;;;;;;;;;;34.31;35.61;102085.88;5063541;28;19948;-84
2023/08/16 08:45:31;;;;;;;;;;;;;;;34.28;36.36;102086.59;5062165;28;19920;-86
2023/08/16 08:47:59;;;;;;;;;;;;;;;34.36;36.73;102087.53;5061345;28;20160;-85
2023/08/16 08:50:25;;;;;;;;;;;;;;;34.52;36.50;102093.69;5063565;28;19920;-83
2023/08/16 08:52:53;;;;;;;;;;;;;;;34.66;36.95;102084.72;5063570;28;19923;-83
2023/08/16 08:55:19;;;;;;;;;;;;;;;34.79;35.84;102083.22;5061527;28;19928;-84
2023/08/16 08:57:50;;;;;;;;;;;;;;;34.84;36.24;102083.72;5062518;28;19928;-82
2023/08/16 09:00:17;;;;;;;;;;;;;;;34.89;35.54;102082.59;5060707;28;19916;-84
2023/08/16 09:02:43;;;;;;;;;;;;;;;35.00;36.05;102077.91;5056528;28;20015;-83
2023/08/16 09:05:09;;;;;;;;;;;;;;;35.10;36.30;102087.53;5061498;28;20027;-83
2023/08/16 09:07:34;;;;;;;;;;;;;;;35.16;35.99;102080.44;5062298;28;19920;-85
2023/08/16 09:10:00;;;;;;;;;;;;;;;35.27;35.47;102083.31;5064317;28;20418;-85
2023/08/16 09:12:25;;;;;;;;;;;;;;;35.44;35.90;102071.53;5059417;28;19917;-86
2023/08/16 09:14:51;;;;;;;;;;;;;;;35.63;35.71;102076.84;5065641;28;19948;-85
2023/08/16 09:17:17;;;;;;;;;;;;;;;35.78;35.51;102088.09;5063897;28;19976;-86
2023/08/16 09:19:46;;;;;;;;;;;;;;;35.82;35.19;102080.53;5062199;28;19921;-83
2023/08/16 09:22:14;;;;;;;;;;;;;;;35.92;35.51;102085.41;5062527;28;19977;-85
2023/08/16 09:24:40;;;;;;;;;;;;;;;36.08;35.23;102085.88;5063964;28;19969;-85
2023/08/16 09:27:06;;;;;;;;;;;;;;;36.20;35.34;102084.75;5062484;28;19962;-86
2023/08/16 09:29:31;;;;;;;;;;;;;;;36.32;35.18;102090.00;5061482;28;19960;-84
2023/08/16 09:31:56;;;;;;;;;;;;;;;36.45;34.96;102082.09;5062844;28;19917;-82
2023/08/16 09:34:24;;;;;;;;;;;;;;;36.55;34.87;102082.09;5061555;28;19921;-85
2023/08/16 09:36:49;;;;;;;;;;;;;;;36.68;34.60;102088.13;5065009;28;19917;-82
2023/08/16 09:39:14;;;;;;;;;;;;;;;36.82;34.48;102090.19;5062447;28;19917;-85
2023/08/16 09:41:47;;;;;;;;;;;;;;;36.83;34.05;102091.78;5060150;28;20371;-85
2023/08/16 09:44:12;;;;;;;;;;;;;;;36.79;34.16;102090.91;5060157;28;20372;-84
2023/08/16 09:46:41;;;;;;;;;;;;;;;36.80;33.45;102092.53;5059725;28;19927;-81
2023/08/16 09:49:07;;;;;;;;;;;;;;;36.83;33.90;102088.97;5060431;28;19916;-82
2023/08/16 09:51:36;;;;;;;;;;;;;;;36.90;34.10;102084.19;5060240;28;20401;-85
2023/08/16 09:54:07;;;;;;;;;;;;;;;37.06;33.33;102097.78;5056333;28;20180;-85
2023/08/16 09:56:34;;;;;;;;;;;;;;;36.97;33.06;102090.97;5059550;28;20003;-84
2023/08/16 09:59:00;;;;;;;;;;;;;;;36.89;32.79;102092.97;5062283;28;19924;-86
2023/08/16 10:01:26;;;;;;;;;;;;;;;36.90;32.60;102092.56;5062683;28;20372;-85
2023/08/16 10:03:55;;;;;;;;;;;;;;;36.96;33.14;102081.00;5058771;28;19955;-85
2023/08/16 10:06:23;;;;;;;;;;;;;;;37.11;33.15;102088.19;5070044;28;19924;-85
2023/08/16 10:08:52;;;;;;;;;;;;;;;37.18;32.73;102089.00;5061570;28;20011;-85
2023/08/16 10:11:17;;;;;;;;;;;;;;;37.22;33.06;102091.81;5062407;28;19999;-85
2023/08/16 10:13:43;;;;;;;;;;;;;;;37.35;33.07;102081.84;5063073;28;20007;-85
2023/08/16 10:16:11;;;;;;;;;;;;;;;37.34;33.07;102085.81;5058376;28;19920;-82
2023/08/16 10:18:38;;;;;;;;;;;;;;;37.48;32.88;102080.22;5062846;28;19917;-85
2023/08/16 10:21:04;;;;;;;;;;;;;;;37.62;32.72;102081.41;5057837;28;19920;-86
2023/08/16 10:23:30;;;;;;;;;;;;;;;37.72;31.92;102086.19;5060064;28;19927;-86
2023/08/16 10:25:57;;;;;;;;;;;;;;;37.80;31.75;102080.19;5066820;28;19928;-85
2023/08/16 10:28:24;;;;;;;;;;;;;;;37.86;32.01;102079.75;5063813;28;19962;-85
2023/08/16 10:30:52;;;;;;;;;;;;;;;37.95;32.03;102071.75;5065458;28;19924;-85
2023/08/16 10:33:21;;;;;;;;;;;;;;;38.06;31.74;102076.13;5067214;28;19999;-85
2023/08/16 10:35:48;;;;;;;;;;;;;;;38.05;31.77;102071.69;5065228;28;20561;-85
2023/08/16 10:38:14;;;;;;;;;;;;;;;38.04;31.72;102070.09;5064499;28;19916;-85
2023/08/16 10:40:39;;;;;;;;;;;;;;;38.12;31.86;102068.09;5065321;28;19931;-85
2023/08/16 10:43:06;;;;;;;;;;;;;;;38.21;31.79;102073.25;5066963;28;20353;-85
2023/08/16 10:45:34;;;;;;;;;;;;;;;38.29;31.69;102074.84;5063731;28;19932;-85
2023/08/16 10:48:14;;;;;;;;;;;;;;;38.42;31.45;102072.34;5060389;28;20415;-86
2023/08/16 10:50:40;;;;;;;;;;;;;;;38.46;31.47;102067.56;5058822;28;19946;-85
2023/08/16 10:53:07;;;;;;;;;;;;;;;38.50;31.41;102074.72;5058756;28;20595;-85
2023/08/16 10:55:33;;;;;;;;;;;;;;;38.66;31.42;102072.25;5059157;28;19921;-85
2023/08/16 10:57:58;;;;;;;;;;;;;;;38.86;30.97;102072.50;5064830;28;20255;-86
2023/08/16 11:00:32;;;;;;;;;;;;;;;38.98;30.62;102068.41;5058365;28;20003;-85
2023/08/16 11:02:57;;;;;;;;;;;;;;;39.11;30.09;102072.31;5060175;28;19920;-83
2023/08/16 11:05:24;;;;;;;;;;;;;;;39.22;30.53;102058.22;5063016;28;19927;-82
2023/08/16 11:07:50;;;;;;;;;;;;;;;39.32;29.61;102060.16;5057462;28;19925;-88
2023/08/16 11:10:15;;;;;;;;;;;;;;;39.38;29.59;102060.47;5065039;28;20105;-83
2023/08/16 11:12:40;;;;;;;;;;;;;;;39.44;29.90;102061.63;5063205;28;19924;-83
2023/08/16 11:15:06;;;;;;;;;;;;;;;39.48;28.77;102056.75;5063966;28;19943;-83
2023/08/16 11:17:32;;;;;;;;;;;;;;;39.48;29.49;102051.16;5065720;28;19916;-84
2023/08/16 11:20:01;;;;;;;;;;;;;;;39.39;29.65;102053.66;5063266;28;20186;-83
2023/08/16 11:22:26;;;;;;;;;;;;;;;39.32;29.86;102059.31;5066584;28;19973;-84
2023/08/16 11:24:52;;;;;;;;;;;;;;;39.38;29.58;102054.88;5065395;28;19928;-83
2023/08/16 11:27:23;;;;;;;;;;;;;;;39.47;29.79;102052.38;5068500;28;19920;-83
2023/08/16 11:29:49;;;;;;;;;;;;;;;39.62;30.00;102048.22;5063037;28;19952;-83
2023/08/16 11:32:14;;;;;;;;;;;;;;;39.76;29.50;102048.06;5059268;28;19923;-84
2023/08/16 11:34:40;;;;;;;;;;;;;;;39.80;29.19;102056.44;5063414;28;20437;-83
2023/08/16 11:37:05;;;;;;;;;;;;;;;39.85;29.16;102045.53;5065030;28;19961;-83
2023/08/16 11:39:31;;;;;;;;;;;;;;;39.85;29.47;102050.34;5065189;28;19927;-86
2023/08/16 11:41:56;;;;;;;;;;;;;;;39.85;29.02;102058.78;5064545;28;19939;-84
2023/08/16 11:44:24;;;;;;;;;;;;;;;39.94;28.80;102055.47;5065155;28;19929;-83
2023/08/16 11:46:51;;;;;;;;;;;;;;;39.98;28.87;102061.88;5063908;28;19966;-84
2023/08/16 11:49:21;;;;;;;;;;;;;;;40.04;28.44;102061.00;5064289;28;19927;-84
2023/08/16 11:51:46;;;;;;;;;;;;;;;40.08;29.01;102060.94;5061155;28;20438;-84
2023/08/16 11:54:18;;;;;;;;;;;;;;;40.13;26.46;102066.88;5063186;28;19920;-84
2023/08/16 11:56:43;;;;;;;;;;;;;;;40.19;28.39;102058.78;5062582;28;19920;-85
2023/08/16 11:59:10;;;;;;;;;;;;;;;40.17;28.44;102061.22;5064776;28;19928;-84
2023/08/16 12:01:37;;;;;;;;;;;;;;;40.16;27.91;102065.25;5063553;28;19979;-84
2023/08/16 12:04:02;;;;;;;;;;;;;;;40.25;27.79;102062.72;5063694;28;20535;-85
2023/08/16 12:06:27;;;;;;;;;;;;;;;40.26;27.05;102058.69;5061710;28;20468;-83
2023/08/16 12:08:53;;;;;;;;;;;;;;;40.27;27.53;102053.88;5063738;28;20017;-83
2023/08/16 12:11:31;;;;;;;;;;;;;;;40.39;28.63;102061.72;5064486;28;20541;-84
2023/08/16 12:13:57;;;;;;;;;;;;;;;40.53;27.63;102055.91;5065064;28;19974;-84
2023/08/16 12:16:22;;;;;;;;;;;;;;;40.55;26.67;102052.69;5065488;28;19920;-83
2023/08/16 12:18:48;;;;;;;;;;;;;;;40.58;28.03;102057.44;5062986;28;20050;-84
2023/08/16 12:21:13;;;;;;;;;;;;;;;40.70;27.20;102049.22;5066768;28;19927;-84
2023/08/16 12:23:39;;;;;;;;;;;;;;;40.74;27.62;102054.78;5063283;28;19999;-84
2023/08/16 12:26:05;;;;;;;;;;;;;;;40.83;27.94;102055.09;5064905;28;19920;-85
2023/08/16 12:28:30;;;;;;;;;;;;;;;40.97;27.41;102059.69;5065702;28;20474;-82